sensor_id;sensor_type;location;lat;lon;timestamp;P1;durP1;ratioP1;P2;durP2;ratioP2
14306;SDS011;7237;49.500;11.400;2023-10-09T00:01:42;3.00;;;2.47;;
14306;SDS011;7237;49.500;11.400;2023-10-09T00:04:11;3.63;;;3.13;;
14306;SDS011;7237;49.500;11.400;2023-10-09T00:06:39;4.33;;;2.60;;
14306;SDS011;7237;49.500;11.400;2023-10-09T00:09:08;6.93;;;2.77;;
14306;SDS011;7237;49.500;11.400;2023-10-09T00:11:50;2.63;;;2.43;;
14306;SDS011;7237;49.500;11.400;2023-10-09T00:14:22;4.23;;;2.50;;
14306;SDS011;7237;49.500;11.400;2023-10-09T00:16:49;3.00;;;2.50;;
14306;SDS011;7237;49.500;11.400;2023-10-09T00:19:21;3.37;;;3.03;;
14306;SDS011;7237;49.500;11.400;2023-10-09T00:21:55;4.20;;;2.87;;
14306;SDS011;7237;49.500;11.400;2023-10-09T00:24:25;3.40;;;2.97;;
14306;SDS011;7237;49.500;11.400;2023-10-09T00:26:54;4.53;;;3.00;;
14306;SDS011;7237;49.500;11.400;2023-10-09T00:29:36;4.83;;;3.20;;
14306;SDS011;7237;49.500;11.400;2023-10-09T00:32:07;4.20;;;3.00;;
14306;SDS011;7237;49.500;11.400;2023-10-09T00:34:38;3.43;;;2.93;;
14306;SDS011;7237;49.500;11.400;2023-10-09T00:37:06;4.40;;;3.17;;
14306;SDS011;7237;49.500;11.400;2023-10-09T00:39:37;4.13;;;3.03;;
14306;SDS011;7237;49.500;11.400;2023-10-09T00:42:09;5.33;;;2.93;;
14306;SDS011;7237;49.500;11.400;2023-10-09T00:44:39;3.90;;;3.50;;
14306;SDS011;7237;49.500;11.400;2023-10-09T00:47:07;3.23;;;2.93;;
14306;SDS011;7237;49.500;11.400;2023-10-09T00:49:49;5.93;;;3.53;;
14306;SDS011;7237;49.500;11.400;2023-10-09T00:52:19;3.33;;;2.83;;
14306;SDS011;7237;49.500;11.400;2023-10-09T00:54:57;5.77;;;2.97;;
14306;SDS011;7237;49.500;11.400;2023-10-09T00:57:27;4.73;;;3.37;;
14306;SDS011;7237;49.500;11.400;2023-10-09T00:59:56;4.47;;;2.90;;
14306;SDS011;7237;49.500;11.400;2023-10-09T01:02:37;6.03;;;3.47;;
14306;SDS011;7237;49.500;11.400;2023-10-09T01:05:08;6.07;;;3.40;;
14306;SDS011;7237;49.500;11.400;2023-10-09T01:07:44;5.77;;;3.80;;
14306;SDS011;7237;49.500;11.400;2023-10-09T01:10:13;6.13;;;3.23;;
14306;SDS011;7237;49.500;11.400;2023-10-09T01:12:43;4.10;;;3.37;;
14306;SDS011;7237;49.500;11.400;2023-10-09T01:15:13;5.83;;;3.43;;
14306;SDS011;7237;49.500;11.400;2023-10-09T01:18:00;3.83;;;3.10;;
14306;SDS011;7237;49.500;11.400;2023-10-09T01:20:27;4.53;;;3.20;;
14306;SDS011;7237;49.500;11.400;2023-10-09T01:23:03;4.43;;;2.97;;
14306;SDS011;7237;49.500;11.400;2023-10-09T01:25:32;3.37;;;3.07;;
14306;SDS011;7237;49.500;11.400;2023-10-09T01:28:07;3.70;;;3.40;;
14306;SDS011;7237;49.500;11.400;2023-10-09T01:30:34;3.23;;;2.93;;
14306;SDS011;7237;49.500;11.400;2023-10-09T01:33:06;4.47;;;3.53;;
14306;SDS011;7237;49.500;11.400;2023-10-09T01:35:52;4.73;;;3.13;;
14306;SDS011;7237;49.500;11.400;2023-10-09T01:38:25;5.47;;;3.10;;
14306;SDS011;7237;49.500;11.400;2023-10-09T01:41:05;4.17;;;3.50;;
14306;SDS011;7237;49.500;11.400;2023-10-09T01:43:33;5.57;;;3.33;;
14306;SDS011;7237;49.500;11.400;2023-10-09T01:46:00;4.10;;;3.07;;
14306;SDS011;7237;49.500;11.400;2023-10-09T01:48:29;3.90;;;3.23;;
14306;SDS011;7237;49.500;11.400;2023-10-09T01:51:00;4.17;;;3.00;;
14306;SDS011;7237;49.500;11.400;2023-10-09T01:53:31;4.07;;;2.70;;
14306;SDS011;7237;49.500;11.400;2023-10-09T01:56:09;5.17;;;3.17;;
14306;SDS011;7237;49.500;11.400;2023-10-09T01:58:40;4.87;;;3.43;;
14306;SDS011;7237;49.500;11.400;2023-10-09T02:01:08;3.90;;;2.90;;
14306;SDS011;7237;49.500;11.400;2023-10-09T02:03:35;4.67;;;2.80;;
14306;SDS011;7237;49.500;11.400;2023-10-09T02:06:03;3.03;;;2.70;;
14306;SDS011;7237;49.500;11.400;2023-10-09T02:08:51;3.67;;;2.93;;
14306;SDS011;7237;49.500;11.400;2023-10-09T02:11:18;3.47;;;3.17;;
14306;SDS011;7237;49.500;11.400;2023-10-09T02:13:50;4.33;;;2.70;;
14306;SDS011;7237;49.500;11.400;2023-10-09T02:16:26;3.40;;;2.80;;
14306;SDS011;7237;49.500;11.400;2023-10-09T02:18:54;4.67;;;2.60;;
14306;SDS011;7237;49.500;11.400;2023-10-09T02:21:24;5.07;;;2.80;;
14306;SDS011;7237;49.500;11.400;2023-10-09T02:24:06;4.77;;;3.07;;
14306;SDS011;7237;49.500;11.400;2023-10-09T02:26:51;3.30;;;2.97;;
14306;SDS011;7237;49.500;11.400;2023-10-09T02:29:32;4.13;;;3.00;;
14306;SDS011;7237;49.500;11.400;2023-10-09T02:32:03;4.27;;;2.80;;
14306;SDS011;7237;49.500;11.400;2023-10-09T02:34:41;3.07;;;2.50;;
14306;SDS011;7237;49.500;11.400;2023-10-09T02:37:11;4.00;;;2.77;;
14306;SDS011;7237;49.500;11.400;2023-10-09T02:39:40;3.80;;;3.07;;
14306;SDS011;7237;49.500;11.400;2023-10-09T02:42:12;5.60;;;3.00;;
14306;SDS011;7237;49.500;11.400;2023-10-09T02:44:48;3.50;;;2.67;;
14306;SDS011;7237;49.500;11.400;2023-10-09T02:47:16;5.20;;;3.60;;
14306;SDS011;7237;49.500;11.400;2023-10-09T02:49:45;5.97;;;3.33;;
14306;SDS011;7237;49.500;11.400;2023-10-09T02:52:15;3.83;;;3.20;;
14306;SDS011;7237;49.500;11.400;2023-10-09T02:54:45;16.73;;;2.80;;
14306;SDS011;7237;49.500;11.400;2023-10-09T02:57:12;5.83;;;3.03;;
14306;SDS011;7237;49.500;11.400;2023-10-09T02:59:47;3.53;;;2.93;;
14306;SDS011;7237;49.500;11.400;2023-10-09T03:02:16;2.97;;;2.60;;
14306;SDS011;7237;49.500;11.400;2023-10-09T03:04:43;5.97;;;3.20;;
14306;SDS011;7237;49.500;11.400;2023-10-09T03:07:11;3.50;;;2.93;;
14306;SDS011;7237;49.500;11.400;2023-10-09T03:09:39;3.67;;;2.93;;
14306;SDS011;7237;49.500;11.400;2023-10-09T03:12:08;3.63;;;2.90;;
14306;SDS011;7237;49.500;11.400;2023-10-09T03:14:37;6.13;;;3.13;;
14306;SDS011;7237;49.500;11.400;2023-10-09T03:17:06;5.60;;;2.77;;
14306;SDS011;7237;49.500;11.400;2023-10-09T03:19:36;5.00;;;3.07;;
14306;SDS011;7237;49.500;11.400;2023-10-09T03:22:04;4.07;;;2.90;;
14306;SDS011;7237;49.500;11.400;2023-10-09T03:24:34;3.20;;;2.70;;
14306;SDS011;7237;49.500;11.400;2023-10-09T03:27:01;5.13;;;2.90;;
14306;SDS011;7237;49.500;11.400;2023-10-09T03:29:30;3.57;;;2.90;;
14306;SDS011;7237;49.500;11.400;2023-10-09T03:31:58;4.13;;;2.60;;
14306;SDS011;7237;49.500;11.400;2023-10-09T03:34:25;4.33;;;2.83;;
14306;SDS011;7237;49.500;11.400;2023-10-09T03:36:53;3.10;;;2.77;;
14306;SDS011;7237;49.500;11.400;2023-10-09T03:39:29;3.40;;;2.93;;
14306;SDS011;7237;49.500;11.400;2023-10-09T03:42:05;4.87;;;2.90;;
14306;SDS011;7237;49.500;11.400;2023-10-09T03:44:42;4.53;;;3.07;;
14306;SDS011;7237;49.500;11.400;2023-10-09T03:47:13;4.90;;;3.20;;
14306;SDS011;7237;49.500;11.400;2023-10-09T03:49:41;5.60;;;3.20;;
14306;SDS011;7237;49.500;11.400;2023-10-09T03:52:09;4.90;;;4.40;;
14306;SDS011;7237;49.500;11.400;2023-10-09T03:54:36;6.87;;;5.50;;
14306;SDS011;7237;49.500;11.400;2023-10-09T03:57:04;7.63;;;5.30;;
14306;SDS011;7237;49.500;11.400;2023-10-09T03:59:31;3.97;;;3.50;;
14306;SDS011;7237;49.500;11.400;2023-10-09T04:02:00;5.23;;;3.67;;
14306;SDS011;7237;49.500;11.400;2023-10-09T04:04:29;5.53;;;3.10;;
14306;SDS011;7237;49.500;11.400;2023-10-09T04:06:58;4.60;;;3.00;;
14306;SDS011;7237;49.500;11.400;2023-10-09T04:09:25;5.30;;;3.30;;
14306;SDS011;7237;49.500;11.400;2023-10-09T04:12:04;3.40;;;3.10;;
14306;SDS011;7237;49.500;11.400;2023-10-09T04:14:54;4.13;;;3.00;;
14306;SDS011;7237;49.500;11.400;2023-10-09T04:17:24;3.40;;;3.10;;
14306;SDS011;7237;49.500;11.400;2023-10-09T04:20:00;3.87;;;2.90;;
14306;SDS011;7237;49.500;11.400;2023-10-09T04:22:45;4.77;;;3.37;;
14306;SDS011;7237;49.500;11.400;2023-10-09T04:25:16;4.07;;;2.97;;
14306;SDS011;7237;49.500;11.400;2023-10-09T04:27:50;5.37;;;3.20;;
14306;SDS011;7237;49.500;11.400;2023-10-09T04:30:18;5.20;;;3.83;;
14306;SDS011;7237;49.500;11.400;2023-10-09T04:32:50;4.13;;;3.50;;
14306;SDS011;7237;49.500;11.400;2023-10-09T04:35:20;4.60;;;3.77;;
14306;SDS011;7237;49.500;11.400;2023-10-09T04:37:49;6.67;;;3.60;;
14306;SDS011;7237;49.500;11.400;2023-10-09T04:40:25;3.87;;;3.43;;
14306;SDS011;7237;49.500;11.400;2023-10-09T04:43:13;3.77;;;3.37;;
14306;SDS011;7237;49.500;11.400;2023-10-09T04:45:45;5.53;;;3.37;;
14306;SDS011;7237;49.500;11.400;2023-10-09T04:48:31;3.93;;;2.93;;
14306;SDS011;7237;49.500;11.400;2023-10-09T04:51:02;3.03;;;2.60;;
14306;SDS011;7237;49.500;11.400;2023-10-09T04:53:56;4.47;;;3.17;;
14306;SDS011;7237;49.500;11.400;2023-10-09T04:56:38;4.57;;;3.27;;
14306;SDS011;7237;49.500;11.400;2023-10-09T04:59:16;4.97;;;3.50;;
14306;SDS011;7237;49.500;11.400;2023-10-09T05:01:44;6.37;;;3.20;;
14306;SDS011;7237;49.500;11.400;2023-10-09T05:04:24;7.43;;;2.90;;
14306;SDS011;7237;49.500;11.400;2023-10-09T05:07:06;5.43;;;3.37;;
14306;SDS011;7237;49.500;11.400;2023-10-09T05:09:49;5.93;;;3.70;;
14306;SDS011;7237;49.500;11.400;2023-10-09T05:12:23;5.43;;;3.90;;
14306;SDS011;7237;49.500;11.400;2023-10-09T05:14:52;7.37;;;3.60;;
14306;SDS011;7237;49.500;11.400;2023-10-09T05:17:30;6.03;;;3.87;;
14306;SDS011;7237;49.500;11.400;2023-10-09T05:20:00;5.70;;;3.40;;
14306;SDS011;7237;49.500;11.400;2023-10-09T05:22:41;5.00;;;4.03;;
14306;SDS011;7237;49.500;11.400;2023-10-09T05:25:22;5.93;;;4.17;;
14306;SDS011;7237;49.500;11.400;2023-10-09T05:28:11;9.73;;;4.63;;
14306;SDS011;7237;49.500;11.400;2023-10-09T05:30:56;6.37;;;4.73;;
14306;SDS011;7237;49.500;11.400;2023-10-09T05:33:31;7.73;;;5.17;;
14306;SDS011;7237;49.500;11.400;2023-10-09T05:36:00;8.80;;;4.90;;
14306;SDS011;7237;49.500;11.400;2023-10-09T05:39:00;9.37;;;5.23;;
14306;SDS011;7237;49.500;11.400;2023-10-09T05:41:41;6.23;;;4.43;;
14306;SDS011;7237;49.500;11.400;2023-10-09T05:44:24;12.50;;;5.03;;
14306;SDS011;7237;49.500;11.400;2023-10-09T05:47:09;8.83;;;4.83;;
14306;SDS011;7237;49.500;11.400;2023-10-09T05:49:56;9.53;;;4.53;;
14306;SDS011;7237;49.500;11.400;2023-10-09T05:52:42;8.80;;;4.27;;
14306;SDS011;7237;49.500;11.400;2023-10-09T05:55:27;4.33;;;3.30;;
14306;SDS011;7237;49.500;11.400;2023-10-09T05:58:12;6.03;;;3.83;;
14306;SDS011;7237;49.500;11.400;2023-10-09T06:00:57;4.63;;;3.23;;
14306;SDS011;7237;49.500;11.400;2023-10-09T06:03:42;4.63;;;3.50;;
14306;SDS011;7237;49.500;11.400;2023-10-09T06:06:19;12.80;;;4.07;;
14306;SDS011;7237;49.500;11.400;2023-10-09T06:09:00;4.90;;;3.40;;
14306;SDS011;7237;49.500;11.400;2023-10-09T06:11:53;6.40;;;4.00;;
14306;SDS011;7237;49.500;11.400;2023-10-09T06:14:21;8.57;;;3.63;;
14306;SDS011;7237;49.500;11.400;2023-10-09T06:17:11;9.97;;;3.73;;
14306;SDS011;7237;49.500;11.400;2023-10-09T06:19:48;8.67;;;3.60;;
14306;SDS011;7237;49.500;11.400;2023-10-09T06:22:23;9.47;;;4.00;;
14306;SDS011;7237;49.500;11.400;2023-10-09T06:25:11;7.13;;;4.10;;
14306;SDS011;7237;49.500;11.400;2023-10-09T06:27:43;7.97;;;4.07;;
14306;SDS011;7237;49.500;11.400;2023-10-09T06:30:22;6.63;;;4.30;;
14306;SDS011;7237;49.500;11.400;2023-10-09T06:32:53;10.50;;;7.77;;
14306;SDS011;7237;49.500;11.400;2023-10-09T06:35:23;24.17;;;15.80;;
14306;SDS011;7237;49.500;11.400;2023-10-09T06:37:57;8.73;;;4.33;;
14306;SDS011;7237;49.500;11.400;2023-10-09T06:40:52;8.03;;;3.17;;
14306;SDS011;7237;49.500;11.400;2023-10-09T06:43:42;9.67;;;3.97;;
14306;SDS011;7237;49.500;11.400;2023-10-09T06:46:16;11.33;;;4.83;;
14306;SDS011;7237;49.500;11.400;2023-10-09T06:49:00;7.37;;;4.40;;
14306;SDS011;7237;49.500;11.400;2023-10-09T06:51:49;8.47;;;4.67;;
14306;SDS011;7237;49.500;11.400;2023-10-09T06:54:20;9.13;;;4.27;;
14306;SDS011;7237;49.500;11.400;2023-10-09T06:56:52;4.57;;;3.23;;
14306;SDS011;7237;49.500;11.400;2023-10-09T06:59:38;5.83;;;3.50;;
14306;SDS011;7237;49.500;11.400;2023-10-09T07:02:28;5.10;;;2.93;;
14306;SDS011;7237;49.500;11.400;2023-10-09T07:04:56;6.93;;;3.53;;
14306;SDS011;7237;49.500;11.400;2023-10-09T07:07:35;4.83;;;3.60;;
14306;SDS011;7237;49.500;11.400;2023-10-09T07:10:13;6.80;;;3.30;;
14306;SDS011;7237;49.500;11.400;2023-10-09T07:12:56;6.63;;;3.43;;
14306;SDS011;7237;49.500;11.400;2023-10-09T07:15:22;7.30;;;4.20;;
14306;SDS011;7237;49.500;11.400;2023-10-09T07:18:07;4.57;;;3.60;;
14306;SDS011;7237;49.500;11.400;2023-10-09T07:20:48;4.83;;;4.10;;
14306;SDS011;7237;49.500;11.400;2023-10-09T07:23:26;5.63;;;4.20;;
14306;SDS011;7237;49.500;11.400;2023-10-09T07:26:05;6.60;;;4.23;;
14306;SDS011;7237;49.500;11.400;2023-10-09T07:28:46;7.00;;;4.23;;
14306;SDS011;7237;49.500;11.400;2023-10-09T07:31:18;8.77;;;3.90;;
14306;SDS011;7237;49.500;11.400;2023-10-09T07:33:51;9.13;;;3.80;;
14306;SDS011;7237;49.500;11.400;2023-10-09T07:36:47;6.00;;;3.70;;
14306;SDS011;7237;49.500;11.400;2023-10-09T07:39:19;8.70;;;4.00;;
14306;SDS011;7237;49.500;11.400;2023-10-09T07:41:47;4.60;;;3.77;;
14306;SDS011;7237;49.500;11.400;2023-10-09T07:44:41;9.97;;;3.90;;
14306;SDS011;7237;49.500;11.400;2023-10-09T07:47:18;3.90;;;3.50;;
14306;SDS011;7237;49.500;11.400;2023-10-09T07:50:11;6.67;;;4.13;;
14306;SDS011;7237;49.500;11.400;2023-10-09T07:52:41;9.20;;;4.63;;
14306;SDS011;7237;49.500;11.400;2023-10-09T07:55:10;9.10;;;4.70;;
14306;SDS011;7237;49.500;11.400;2023-10-09T07:57:51;7.03;;;4.75;;
14306;SDS011;7237;49.500;11.400;2023-10-09T08:00:19;12.40;;;5.25;;
14306;SDS011;7237;49.500;11.400;2023-10-09T08:03:14;9.45;;;4.22;;
14306;SDS011;7237;49.500;11.400;2023-10-09T08:05:49;12.55;;;5.30;;
14306;SDS011;7237;49.500;11.400;2023-10-09T08:08:18;11.50;;;4.35;;
14306;SDS011;7237;49.500;11.400;2023-10-09T08:10:59;10.88;;;4.43;;
14306;SDS011;7237;49.500;11.400;2023-10-09T08:13:44;12.90;;;4.68;;
14306;SDS011;7237;49.500;11.400;2023-10-09T08:16:27;8.60;;;4.68;;
14306;SDS011;7237;49.500;11.400;2023-10-09T08:19:01;8.20;;;4.13;;
14306;SDS011;7237;49.500;11.400;2023-10-09T08:21:45;8.00;;;4.65;;
14306;SDS011;7237;49.500;11.400;2023-10-09T08:24:32;10.57;;;4.80;;
14306;SDS011;7237;49.500;11.400;2023-10-09T08:27:06;12.35;;;4.38;;
14306;SDS011;7237;49.500;11.400;2023-10-09T08:29:50;10.32;;;4.72;;
14306;SDS011;7237;49.500;11.400;2023-10-09T08:32:38;11.55;;;4.70;;
14306;SDS011;7237;49.500;11.400;2023-10-09T08:35:06;13.00;;;4.32;;
14306;SDS011;7237;49.500;11.400;2023-10-09T08:37:44;8.73;;;4.05;;
14306;SDS011;7237;49.500;11.400;2023-10-09T08:40:13;10.38;;;4.40;;
14306;SDS011;7237;49.500;11.400;2023-10-09T08:42:43;10.10;;;4.30;;
14306;SDS011;7237;49.500;11.400;2023-10-09T08:45:14;16.45;;;4.55;;
14306;SDS011;7237;49.500;11.400;2023-10-09T08:47:44;7.43;;;4.07;;
14306;SDS011;7237;49.500;11.400;2023-10-09T08:50:14;10.48;;;4.20;;
14306;SDS011;7237;49.500;11.400;2023-10-09T08:52:44;7.57;;;3.85;;
14306;SDS011;7237;49.500;11.400;2023-10-09T08:55:13;15.32;;;4.45;;
14306;SDS011;7237;49.500;11.400;2023-10-09T08:57:42;13.00;;;4.38;;
14306;SDS011;7237;49.500;11.400;2023-10-09T09:00:10;10.32;;;4.13;;
14306;SDS011;7237;49.500;11.400;2023-10-09T09:02:47;9.55;;;4.30;;
14306;SDS011;7237;49.500;11.400;2023-10-09T09:05:18;11.38;;;4.47;;
14306;SDS011;7237;49.500;11.400;2023-10-09T09:07:45;13.90;;;4.22;;
14306;SDS011;7237;49.500;11.400;2023-10-09T09:10:13;10.45;;;4.80;;
14306;SDS011;7237;49.500;11.400;2023-10-09T09:12:43;12.02;;;4.45;;
14306;SDS011;7237;49.500;11.400;2023-10-09T09:15:12;16.67;;;5.20;;
14306;SDS011;7237;49.500;11.400;2023-10-09T09:17:45;8.68;;;4.53;;
14306;SDS011;7237;49.500;11.400;2023-10-09T09:20:22;15.95;;;4.45;;
14306;SDS011;7237;49.500;11.400;2023-10-09T09:22:52;7.57;;;4.45;;
14306;SDS011;7237;49.500;11.400;2023-10-09T09:25:21;10.60;;;4.18;;
14306;SDS011;7237;49.500;11.400;2023-10-09T09:27:50;10.75;;;4.13;;
14306;SDS011;7237;49.500;11.400;2023-10-09T09:30:23;9.07;;;4.07;;
14306;SDS011;7237;49.500;11.400;2023-10-09T09:32:50;10.35;;;4.35;;
14306;SDS011;7237;49.500;11.400;2023-10-09T09:35:39;11.52;;;4.72;;
14306;SDS011;7237;49.500;11.400;2023-10-09T09:38:19;13.80;;;4.68;;
14306;SDS011;7237;49.500;11.400;2023-10-09T09:40:48;10.65;;;4.10;;
14306;SDS011;7237;49.500;11.400;2023-10-09T09:43:19;12.05;;;4.28;;
14306;SDS011;7237;49.500;11.400;2023-10-09T09:45:47;13.05;;;4.63;;
14306;SDS011;7237;49.500;11.400;2023-10-09T09:48:16;10.07;;;4.18;;
14306;SDS011;7237;49.500;11.400;2023-10-09T09:50:45;15.85;;;4.10;;
14306;SDS011;7237;49.500;11.400;2023-10-09T09:53:13;14.13;;;4.80;;
14306;SDS011;7237;49.500;11.400;2023-10-09T09:55:43;14.30;;;4.82;;
14306;SDS011;7237;49.500;11.400;2023-10-09T09:58:17;14.70;;;5.13;;
14306;SDS011;7237;49.500;11.400;2023-10-09T10:00:45;14.77;;;5.13;;
14306;SDS011;7237;49.500;11.400;2023-10-09T10:03:18;13.70;;;4.97;;
14306;SDS011;7237;49.500;11.400;2023-10-09T10:05:47;16.45;;;5.53;;
14306;SDS011;7237;49.500;11.400;2023-10-09T10:08:17;12.30;;;4.80;;
14306;SDS011;7237;49.500;11.400;2023-10-09T10:10:45;10.98;;;4.18;;
14306;SDS011;7237;49.500;11.400;2023-10-09T10:16:04;13.13;;;4.78;;
14306;SDS011;7237;49.500;11.400;2023-10-09T10:21:22;14.75;;;5.10;;
14306;SDS011;7237;49.500;11.400;2023-10-09T10:24:03;15.02;;;5.35;;
14306;SDS011;7237;49.500;11.400;2023-10-09T10:26:32;12.98;;;4.57;;
14306;SDS011;7237;49.500;11.400;2023-10-09T10:29:16;8.45;;;4.60;;
14306;SDS011;7237;49.500;11.400;2023-10-09T10:31:51;10.43;;;4.93;;
14306;SDS011;7237;49.500;11.400;2023-10-09T10:34:19;12.20;;;4.55;;
14306;SDS011;7237;49.500;11.400;2023-10-09T10:36:50;11.93;;;4.97;;
14306;SDS011;7237;49.500;11.400;2023-10-09T10:39:23;12.68;;;4.30;;
14306;SDS011;7237;49.500;11.400;2023-10-09T10:42:08;7.18;;;4.18;;
14306;SDS011;7237;49.500;11.400;2023-10-09T10:44:39;9.35;;;4.30;;
14306;SDS011;7237;49.500;11.400;2023-10-09T10:47:09;11.77;;;5.30;;
14306;SDS011;7237;49.500;11.400;2023-10-09T10:49:50;11.57;;;5.00;;
14306;SDS011;7237;49.500;11.400;2023-10-09T10:52:24;10.63;;;4.75;;
14306;SDS011;7237;49.500;11.400;2023-10-09T10:55:07;10.68;;;4.47;;
14306;SDS011;7237;49.500;11.400;2023-10-09T10:57:42;15.50;;;5.53;;
14306;SDS011;7237;49.500;11.400;2023-10-09T11:00:32;10.20;;;4.13;;
14306;SDS011;7237;49.500;11.400;2023-10-09T11:03:18;9.88;;;4.40;;
14306;SDS011;7237;49.500;11.400;2023-10-09T11:05:54;10.10;;;4.95;;
14306;SDS011;7237;49.500;11.400;2023-10-09T11:08:25;12.82;;;4.72;;
14306;SDS011;7237;49.500;11.400;2023-10-09T11:11:10;9.68;;;4.82;;
14306;SDS011;7237;49.500;11.400;2023-10-09T11:13:41;12.15;;;4.60;;
14306;SDS011;7237;49.500;11.400;2023-10-09T11:16:22;12.90;;;5.25;;
14306;SDS011;7237;49.500;11.400;2023-10-09T11:19:08;9.57;;;4.50;;
14306;SDS011;7237;49.500;11.400;2023-10-09T11:21:47;8.07;;;4.50;;
14306;SDS011;7237;49.500;11.400;2023-10-09T11:24:24;8.43;;;4.65;;
14306;SDS011;7237;49.500;11.400;2023-10-09T11:26:50;8.68;;;4.68;;
14306;SDS011;7237;49.500;11.400;2023-10-09T11:29:22;7.00;;;4.47;;
14306;SDS011;7237;49.500;11.400;2023-10-09T11:32:01;11.82;;;5.05;;
14306;SDS011;7237;49.500;11.400;2023-10-09T11:34:30;15.52;;;4.90;;
14306;SDS011;7237;49.500;11.400;2023-10-09T11:36:57;11.75;;;5.57;;
14306;SDS011;7237;49.500;11.400;2023-10-09T11:39:27;13.02;;;5.22;;
14306;SDS011;7237;49.500;11.400;2023-10-09T11:42:00;11.10;;;4.13;;
14306;SDS011;7237;49.500;11.400;2023-10-09T11:44:34;9.88;;;4.75;;
14306;SDS011;7237;49.500;11.400;2023-10-09T11:47:04;13.60;;;4.60;;
14306;SDS011;7237;49.500;11.400;2023-10-09T11:49:48;10.20;;;4.55;;
14306;SDS011;7237;49.500;11.400;2023-10-09T11:52:21;10.23;;;5.03;;
14306;SDS011;7237;49.500;11.400;2023-10-09T11:55:05;11.32;;;5.05;;
14306;SDS011;7237;49.500;11.400;2023-10-09T11:57:33;13.27;;;5.70;;
14306;SDS011;7237;49.500;11.400;2023-10-09T12:00:01;7.55;;;4.63;;
14306;SDS011;7237;49.500;11.400;2023-10-09T12:02:36;12.55;;;4.85;;
14306;SDS011;7237;49.500;11.400;2023-10-09T12:05:09;11.15;;;5.22;;
14306;SDS011;7237;49.500;11.400;2023-10-09T12:07:42;8.93;;;4.05;;
14306;SDS011;7237;49.500;11.400;2023-10-09T12:10:10;8.05;;;4.32;;
14306;SDS011;7237;49.500;11.400;2023-10-09T12:12:39;14.77;;;5.50;;
14306;SDS011;7237;49.500;11.400;2023-10-09T12:15:11;12.60;;;5.22;;
14306;SDS011;7237;49.500;11.400;2023-10-09T12:17:42;10.43;;;4.75;;
14306;SDS011;7237;49.500;11.400;2023-10-09T12:20:09;9.60;;;5.13;;
14306;SDS011;7237;49.500;11.400;2023-10-09T12:22:55;9.85;;;4.57;;
14306;SDS011;7237;49.500;11.400;2023-10-09T12:25:24;10.63;;;4.72;;
14306;SDS011;7237;49.500;11.400;2023-10-09T12:27:51;10.55;;;4.68;;
14306;SDS011;7237;49.500;11.400;2023-10-09T12:30:22;9.00;;;4.25;;
14306;SDS011;7237;49.500;11.400;2023-10-09T12:32:52;12.32;;;4.63;;
14306;SDS011;7237;49.500;11.400;2023-10-09T12:35:20;15.13;;;4.95;;
14306;SDS011;7237;49.500;11.400;2023-10-09T12:37:49;11.55;;;4.13;;
14306;SDS011;7237;49.500;11.400;2023-10-09T12:40:16;14.93;;;4.65;;
14306;SDS011;7237;49.500;11.400;2023-10-09T12:42:50;10.65;;;4.00;;
14306;SDS011;7237;49.500;11.400;2023-10-09T12:45:20;11.75;;;3.78;;
14306;SDS011;7237;49.500;11.400;2023-10-09T12:47:51;12.75;;;4.05;;
14306;SDS011;7237;49.500;11.400;2023-10-09T12:50:19;12.02;;;4.10;;
14306;SDS011;7237;49.500;11.400;2023-10-09T12:52:53;12.70;;;4.35;;
14306;SDS011;7237;49.500;11.400;2023-10-09T12:55:20;9.07;;;4.03;;
14306;SDS011;7237;49.500;11.400;2023-10-09T12:57:57;9.77;;;3.47;;
14306;SDS011;7237;49.500;11.400;2023-10-09T13:00:31;10.50;;;3.78;;
14306;SDS011;7237;49.500;11.400;2023-10-09T13:02:58;10.20;;;4.05;;
14306;SDS011;7237;49.500;11.400;2023-10-09T13:05:27;12.85;;;4.45;;
14306;SDS011;7237;49.500;11.400;2023-10-09T13:07:54;14.18;;;4.18;;
14306;SDS011;7237;49.500;11.400;2023-10-09T13:10:23;11.20;;;4.07;;
14306;SDS011;7237;49.500;11.400;2023-10-09T13:12:50;8.55;;;3.47;;
14306;SDS011;7237;49.500;11.400;2023-10-09T13:15:22;12.77;;;4.28;;
14306;SDS011;7237;49.500;11.400;2023-10-09T13:17:49;15.65;;;4.00;;
14306;SDS011;7237;49.500;11.400;2023-10-09T13:20:18;12.43;;;4.13;;
14306;SDS011;7237;49.500;11.400;2023-10-09T13:22:46;13.75;;;3.95;;
14306;SDS011;7237;49.500;11.400;2023-10-09T13:25:14;10.25;;;3.72;;
14306;SDS011;7237;49.500;11.400;2023-10-09T13:27:49;12.30;;;3.75;;
14306;SDS011;7237;49.500;11.400;2023-10-09T13:30:17;14.20;;;4.20;;
14306;SDS011;7237;49.500;11.400;2023-10-09T13:32:49;13.98;;;4.30;;
14306;SDS011;7237;49.500;11.400;2023-10-09T13:35:17;11.48;;;3.67;;
14306;SDS011;7237;49.500;11.400;2023-10-09T13:37:44;13.75;;;4.00;;
14306;SDS011;7237;49.500;11.400;2023-10-09T13:40:19;11.73;;;4.35;;
14306;SDS011;7237;49.500;11.400;2023-10-09T13:42:52;11.48;;;4.13;;
14306;SDS011;7237;49.500;11.400;2023-10-09T13:45:19;11.85;;;3.67;;
14306;SDS011;7237;49.500;11.400;2023-10-09T13:47:53;9.75;;;3.72;;
14306;SDS011;7237;49.500;11.400;2023-10-09T13:50:20;9.35;;;3.53;;
14306;SDS011;7237;49.500;11.400;2023-10-09T13:52:47;10.27;;;3.88;;
14306;SDS011;7237;49.500;11.400;2023-10-09T13:55:15;10.10;;;4.13;;
14306;SDS011;7237;49.500;11.400;2023-10-09T13:57:42;15.10;;;4.22;;
14306;SDS011;7237;49.500;11.400;2023-10-09T14:00:12;10.50;;;4.35;;
14306;SDS011;7237;49.500;11.400;2023-10-09T14:02:42;15.00;;;3.92;;
14306;SDS011;7237;49.500;11.400;2023-10-09T14:05:12;13.90;;;4.10;;
14306;SDS011;7237;49.500;11.400;2023-10-09T14:07:40;7.80;;;3.15;;
14306;SDS011;7237;49.500;11.400;2023-10-09T14:10:07;10.45;;;3.50;;
14306;SDS011;7237;49.500;11.400;2023-10-09T14:12:42;9.98;;;3.47;;
14306;SDS011;7237;49.500;11.400;2023-10-09T14:15:09;12.20;;;5.43;;
14306;SDS011;7237;49.500;11.400;2023-10-09T14:17:42;12.20;;;4.03;;
14306;SDS011;7237;49.500;11.400;2023-10-09T14:20:13;12.38;;;3.47;;
14306;SDS011;7237;49.500;11.400;2023-10-09T14:22:55;13.63;;;3.97;;
14306;SDS011;7237;49.500;11.400;2023-10-09T14:25:22;13.50;;;3.78;;
14306;SDS011;7237;49.500;11.400;2023-10-09T14:27:49;11.05;;;3.80;;
14306;SDS011;7237;49.500;11.400;2023-10-09T14:30:18;9.38;;;3.45;;
14306;SDS011;7237;49.500;11.400;2023-10-09T14:32:55;11.52;;;4.13;;
14306;SDS011;7237;49.500;11.400;2023-10-09T14:35:23;8.88;;;3.85;;
14306;SDS011;7237;49.500;11.400;2023-10-09T14:37:52;9.85;;;3.65;;
14306;SDS011;7237;49.500;11.400;2023-10-09T14:40:19;15.70;;;4.28;;
14306;SDS011;7237;49.500;11.400;2023-10-09T14:42:54;12.20;;;3.80;;
14306;SDS011;7237;49.500;11.400;2023-10-09T14:45:23;15.95;;;4.07;;
14306;SDS011;7237;49.500;11.400;2023-10-09T14:47:51;20.40;;;4.22;;
14306;SDS011;7237;49.500;11.400;2023-10-09T14:50:19;14.10;;;4.25;;
14306;SDS011;7237;49.500;11.400;2023-10-09T14:52:48;14.35;;;4.57;;
14306;SDS011;7237;49.500;11.400;2023-10-09T14:55:16;13.05;;;4.18;;
14306;SDS011;7237;49.500;11.400;2023-10-09T14:57:46;8.23;;;4.10;;
14306;SDS011;7237;49.500;11.400;2023-10-09T15:00:15;12.23;;;3.70;;
14306;SDS011;7237;49.500;11.400;2023-10-09T15:02:48;9.40;;;3.95;;
14306;SDS011;7237;49.500;11.400;2023-10-09T15:05:15;13.85;;;3.97;;
14306;SDS011;7237;49.500;11.400;2023-10-09T15:07:42;10.38;;;4.05;;
14306;SDS011;7237;49.500;11.400;2023-10-09T15:10:11;11.02;;;4.10;;
14306;SDS011;7237;49.500;11.400;2023-10-09T15:12:41;13.95;;;4.45;;
14306;SDS011;7237;49.500;11.400;2023-10-09T15:15:12;10.32;;;4.85;;
14306;SDS011;7237;49.500;11.400;2023-10-09T15:17:39;12.73;;;4.40;;
14306;SDS011;7237;49.500;11.400;2023-10-09T15:20:10;14.32;;;4.18;;
14306;SDS011;7237;49.500;11.400;2023-10-09T15:22:39;19.67;;;10.45;;
14306;SDS011;7237;49.500;11.400;2023-10-09T15:25:06;10.52;;;5.72;;
14306;SDS011;7237;49.500;11.400;2023-10-09T15:27:34;9.30;;;3.95;;